sensor_id;sensor_type;location;lat;lon;timestamp;pressure;altitude;pressure_sealevel;temperature;humidity
70841;BME280;58465;51.534;9.934;2022-07-05T00:01:40;100279.59;;;17.20;50.26
70841;BME280;58465;51.534;9.934;2022-07-05T00:04:06;100281.44;;;17.20;50.33
70841;BME280;58465;51.534;9.934;2022-07-05T00:06:31;100281.56;;;17.17;50.40
70841;BME280;58465;51.534;9.934;2022-07-05T00:08:56;100286.13;;;17.15;50.30
70841;BME280;58465;51.534;9.934;2022-07-05T00:11:21;100291.81;;;17.09;50.53
70841;BME280;58465;51.534;9.934;2022-07-05T00:13:47;100276.06;;;16.99;50.60
70841;BME280;58465;51.534;9.934;2022-07-05T00:16:12;100275.59;;;16.90;50.74
70841;BME280;58465;51.534;9.934;2022-07-05T00:18:38;100291.84;;;16.88;50.64
70841;BME280;58465;51.534;9.934;2022-07-05T00:21:03;100284.56;;;16.90;50.82
70841;BME280;58465;51.534;9.934;2022-07-05T00:23:28;100273.63;;;16.93;50.65
70841;BME280;58465;51.534;9.934;2022-07-05T00:25:54;100285.50;;;16.89;50.88
70841;BME280;58465;51.534;9.934;2022-07-05T00:28:19;100273.78;;;16.90;50.93
70841;BME280;58465;51.534;9.934;2022-07-05T00:30:44;100278.22;;;16.91;50.80
70841;BME280;58465;51.534;9.934;2022-07-05T00:33:10;100279.94;;;16.92;50.73
70841;BME280;58465;51.534;9.934;2022-07-05T00:35:35;100274.97;;;16.83;51.58
70841;BME280;58465;51.534;9.934;2022-07-05T00:38:00;100277.94;;;16.77;52.50
70841;BME280;58465;51.534;9.934;2022-07-05T00:40:26;100285.94;;;16.58;54.51
70841;BME280;58465;51.534;9.934;2022-07-05T00:42:51;100281.28;;;16.42;54.73
70841;BME280;58465;51.534;9.934;2022-07-05T00:45:16;100298.06;;;16.26;55.58
70841;BME280;58465;51.534;9.934;2022-07-05T00:47:42;100287.94;;;16.11;55.78
70841;BME280;58465;51.534;9.934;2022-07-05T00:50:08;100293.88;;;15.98;56.24
70841;BME280;58465;51.534;9.934;2022-07-05T00:52:33;100301.34;;;15.91;56.57
70841;BME280;58465;51.534;9.934;2022-07-05T00:54:59;100306.72;;;15.91;56.33
70841;BME280;58465;51.534;9.934;2022-07-05T00:57:24;100306.78;;;15.89;56.25
70841;BME280;58465;51.534;9.934;2022-07-05T00:59:51;100308.59;;;15.89;56.25
70841;BME280;58465;51.534;9.934;2022-07-05T01:02:16;100314.34;;;15.80;56.61
70841;BME280;58465;51.534;9.934;2022-07-05T01:04:42;100312.03;;;15.71;56.51
70841;BME280;58465;51.534;9.934;2022-07-05T01:07:07;100313.28;;;15.62;56.93
70841;BME280;58465;51.534;9.934;2022-07-05T01:09:33;100311.72;;;15.56;57.08
70841;BME280;58465;51.534;9.934;2022-07-05T01:11:59;100310.97;;;15.51;57.22
70841;BME280;58465;51.534;9.934;2022-07-05T01:14:24;100301.25;;;15.47;57.18
70841;BME280;58465;51.534;9.934;2022-07-05T01:16:50;100305.94;;;15.42;57.23
70841;BME280;58465;51.534;9.934;2022-07-05T01:19:17;100303.28;;;15.41;56.86
70841;BME280;58465;51.534;9.934;2022-07-05T01:21:49;100308.56;;;15.44;57.07
70841;BME280;58465;51.534;9.934;2022-07-05T01:24:16;100310.13;;;15.49;56.95
70841;BME280;58465;51.534;9.934;2022-07-05T01:26:44;100316.25;;;15.54;56.27
70841;BME280;58465;51.534;9.934;2022-07-05T01:29:10;100307.00;;;15.62;56.40
70841;BME280;58465;51.534;9.934;2022-07-05T01:31:37;100311.16;;;15.70;56.13
70841;BME280;58465;51.534;9.934;2022-07-05T01:34:04;100320.94;;;15.73;55.88
70841;BME280;58465;51.534;9.934;2022-07-05T01:36:29;100317.31;;;15.74;56.01
70841;BME280;58465;51.534;9.934;2022-07-05T01:38:54;100316.53;;;15.70;56.17
70841;BME280;58465;51.534;9.934;2022-07-05T01:41:20;100300.56;;;15.66;56.03
70841;BME280;58465;51.534;9.934;2022-07-05T01:43:45;100302.50;;;15.62;56.12
70841;BME280;58465;51.534;9.934;2022-07-05T01:46:11;100315.28;;;15.57;56.27
70841;BME280;58465;51.534;9.934;2022-07-05T01:48:39;100307.50;;;15.48;56.81
70841;BME280;58465;51.534;9.934;2022-07-05T01:51:07;100304.06;;;15.44;56.90
70841;BME280;58465;51.534;9.934;2022-07-05T01:53:35;100289.88;;;15.39;56.89
70841;BME280;58465;51.534;9.934;2022-07-05T01:56:04;100298.88;;;15.38;56.82
70841;BME280;58465;51.534;9.934;2022-07-05T01:58:30;100304.41;;;15.35;56.92
70841;BME280;58465;51.534;9.934;2022-07-05T02:00:57;100299.09;;;15.34;56.86
70841;BME280;58465;51.534;9.934;2022-07-05T02:03:23;100298.44;;;15.27;56.98
70841;BME280;58465;51.534;9.934;2022-07-05T02:05:49;100302.81;;;15.30;57.17
70841;BME280;58465;51.534;9.934;2022-07-05T02:08:16;100301.94;;;15.29;57.41
70841;BME280;58465;51.534;9.934;2022-07-05T02:10:42;100306.53;;;15.27;57.43
70841;BME280;58465;51.534;9.934;2022-07-05T02:13:08;100306.63;;;15.24;57.68
70841;BME280;58465;51.534;9.934;2022-07-05T02:15:35;100310.28;;;15.21;57.92
70841;BME280;58465;51.534;9.934;2022-07-05T02:18:01;100300.47;;;15.20;57.83
70841;BME280;58465;51.534;9.934;2022-07-05T02:20:29;100299.66;;;15.18;57.73
70841;BME280;58465;51.534;9.934;2022-07-05T02:22:55;100300.81;;;15.11;57.79
70841;BME280;58465;51.534;9.934;2022-07-05T02:25:21;100303.19;;;14.96;58.39
70841;BME280;58465;51.534;9.934;2022-07-05T02:27:47;100306.13;;;14.90;58.43
70841;BME280;58465;51.534;9.934;2022-07-05T02:30:13;100303.69;;;14.82;58.83
70841;BME280;58465;51.534;9.934;2022-07-05T02:32:39;100299.31;;;14.79;58.83
70841;BME280;58465;51.534;9.934;2022-07-05T02:35:05;100308.50;;;14.72;59.17
70841;BME280;58465;51.534;9.934;2022-07-05T02:37:31;100303.31;;;14.68;59.00
70841;BME280;58465;51.534;9.934;2022-07-05T02:39:57;100313.22;;;14.66;59.26
70841;BME280;58465;51.534;9.934;2022-07-05T02:42:22;100309.63;;;14.67;59.23
70841;BME280;58465;51.534;9.934;2022-07-05T02:44:47;100310.50;;;14.67;59.19
70841;BME280;58465;51.534;9.934;2022-07-05T02:47:13;100311.69;;;14.59;59.53
70841;BME280;58465;51.534;9.934;2022-07-05T02:49:38;100307.28;;;14.56;59.35
70841;BME280;58465;51.534;9.934;2022-07-05T02:52:03;100308.13;;;14.58;59.69
70841;BME280;58465;51.534;9.934;2022-07-05T02:54:29;100305.13;;;14.67;59.10
70841;BME280;58465;51.534;9.934;2022-07-05T02:56:54;100310.16;;;14.76;59.29
70841;BME280;58465;51.534;9.934;2022-07-05T02:59:20;100311.69;;;14.83;59.07
70841;BME280;58465;51.534;9.934;2022-07-05T03:01:45;100311.59;;;14.87;58.50
70841;BME280;58465;51.534;9.934;2022-07-05T03:04:10;100304.34;;;14.89;58.55
70841;BME280;58465;51.534;9.934;2022-07-05T03:06:36;100309.66;;;14.90;58.58
70841;BME280;58465;51.534;9.934;2022-07-05T03:09:02;100310.75;;;14.84;58.61
70841;BME280;58465;51.534;9.934;2022-07-05T03:11:27;100314.38;;;14.83;58.56
70841;BME280;58465;51.534;9.934;2022-07-05T03:13:52;100313.44;;;14.84;58.78
70841;BME280;58465;51.534;9.934;2022-07-05T03:16:18;100318.78;;;14.86;58.86
70841;BME280;58465;51.534;9.934;2022-07-05T03:18:43;100317.81;;;14.89;58.69
70841;BME280;58465;51.534;9.934;2022-07-05T03:21:08;100316.69;;;14.94;58.74
70841;BME280;58465;51.534;9.934;2022-07-05T03:23:34;100319.16;;;15.00;58.64
70841;BME280;58465;51.534;9.934;2022-07-05T03:25:59;100311.97;;;15.01;58.46
70841;BME280;58465;51.534;9.934;2022-07-05T03:28:24;100315.56;;;15.00;58.53
70841;BME280;58465;51.534;9.934;2022-07-05T03:30:50;100323.66;;;15.00;58.52
70841;BME280;58465;51.534;9.934;2022-07-05T03:33:15;100326.53;;;14.95;58.47
70841;BME280;58465;51.534;9.934;2022-07-05T03:35:40;100322.13;;;14.93;58.65
70841;BME280;58465;51.534;9.934;2022-07-05T03:38:05;100320.38;;;14.92;58.62
70841;BME280;58465;51.534;9.934;2022-07-05T03:40:31;100323.88;;;14.94;58.99
70841;BME280;58465;51.534;9.934;2022-07-05T03:42:56;100328.34;;;14.95;58.58
70841;BME280;58465;51.534;9.934;2022-07-05T03:45:21;100328.38;;;14.93;58.74
70841;BME280;58465;51.534;9.934;2022-07-05T03:47:47;100325.88;;;14.89;58.74
70841;BME280;58465;51.534;9.934;2022-07-05T03:50:12;100321.44;;;14.88;58.61
70841;BME280;58465;51.534;9.934;2022-07-05T03:52:37;100331.13;;;14.92;58.75
70841;BME280;58465;51.534;9.934;2022-07-05T03:55:03;100325.63;;;14.95;58.84
70841;BME280;58465;51.534;9.934;2022-07-05T03:57:29;100331.81;;;14.98;58.84
70841;BME280;58465;51.534;9.934;2022-07-05T03:59:54;100331.72;;;15.00;58.52
70841;BME280;58465;51.534;9.934;2022-07-05T04:02:20;100333.47;;;15.01;58.46
70841;BME280;58465;51.534;9.934;2022-07-05T04:04:45;100326.28;;;15.01;58.52
70841;BME280;58465;51.534;9.934;2022-07-05T04:07:10;100330.78;;;15.01;58.54
70841;BME280;58465;51.534;9.934;2022-07-05T04:09:36;100325.50;;;14.99;58.79
70841;BME280;58465;51.534;9.934;2022-07-05T04:12:01;100331.63;;;15.03;58.50
70841;BME280;58465;51.534;9.934;2022-07-05T04:14:27;100336.13;;;15.02;58.77
70841;BME280;58465;51.534;9.934;2022-07-05T04:16:52;100338.94;;;14.99;58.89
70841;BME280;58465;51.534;9.934;2022-07-05T04:19:17;100345.16;;;15.00;58.67
70841;BME280;58465;51.534;9.934;2022-07-05T04:21:43;100341.63;;;14.99;58.64
70841;BME280;58465;51.534;9.934;2022-07-05T04:24:08;100345.94;;;15.03;59.01
70841;BME280;58465;51.534;9.934;2022-07-05T04:26:33;100354.56;;;15.13;58.79
70841;BME280;58465;51.534;9.934;2022-07-05T04:28:59;100341.72;;;15.21;58.58
70841;BME280;58465;51.534;9.934;2022-07-05T04:31:24;100338.72;;;15.29;58.15
70841;BME280;58465;51.534;9.934;2022-07-05T04:33:49;100338.56;;;15.33;57.84
70841;BME280;58465;51.534;9.934;2022-07-05T04:36:15;100344.50;;;15.43;57.67
70841;BME280;58465;51.534;9.934;2022-07-05T04:38:40;100344.06;;;15.55;57.32
70841;BME280;58465;51.534;9.934;2022-07-05T04:41:06;100343.41;;;15.72;56.86
70841;BME280;58465;51.534;9.934;2022-07-05T04:43:31;100346.50;;;15.84;56.74
70841;BME280;58465;51.534;9.934;2022-07-05T04:45:59;100349.78;;;15.92;56.46
70841;BME280;58465;51.534;9.934;2022-07-05T04:48:24;100343.50;;;15.92;56.33
70841;BME280;58465;51.534;9.934;2022-07-05T04:50:49;100339.84;;;15.71;56.96
70841;BME280;58465;51.534;9.934;2022-07-05T04:53:15;100342.69;;;15.67;56.94
70841;BME280;58465;51.534;9.934;2022-07-05T04:55:40;100350.19;;;15.82;56.94
70841;BME280;58465;51.534;9.934;2022-07-05T04:58:05;100355.13;;;15.94;56.29
70841;BME280;58465;51.534;9.934;2022-07-05T05:00:31;100354.44;;;16.11;55.97
70841;BME280;58465;51.534;9.934;2022-07-05T05:02:56;100351.25;;;16.23;55.62
70841;BME280;58465;51.534;9.934;2022-07-05T05:05:21;100368.34;;;16.22;55.60
70841;BME280;58465;51.534;9.934;2022-07-05T05:07:47;100360.22;;;16.23;55.47
70841;BME280;58465;51.534;9.934;2022-07-05T05:10:12;100354.16;;;16.17;55.40
70841;BME280;58465;51.534;9.934;2022-07-05T05:12:38;100362.47;;;16.12;56.06
70841;BME280;58465;51.534;9.934;2022-07-05T05:15:03;100360.59;;;16.14;56.26
70841;BME280;58465;51.534;9.934;2022-07-05T05:17:38;100363.28;;;16.14;56.16
70841;BME280;58465;51.534;9.934;2022-07-05T05:20:14;100370.59;;;16.11;56.65
70841;BME280;58465;51.534;9.934;2022-07-05T05:22:40;100373.53;;;16.26;55.99
70841;BME280;58465;51.534;9.934;2022-07-05T05:25:07;100374.53;;;16.46;55.40
70841;BME280;58465;51.534;9.934;2022-07-05T05:27:32;100367.66;;;16.60;54.87
70841;BME280;58465;51.534;9.934;2022-07-05T05:29:58;100376.69;;;16.81;54.30
70841;BME280;58465;51.534;9.934;2022-07-05T05:32:23;100380.59;;;16.94;54.12
70841;BME280;58465;51.534;9.934;2022-07-05T05:34:48;100384.00;;;16.99;53.79
70841;BME280;58465;51.534;9.934;2022-07-05T05:37:14;100381.06;;;17.04;54.22
70841;BME280;58465;51.534;9.934;2022-07-05T05:39:39;100388.91;;;17.10;53.78
70841;BME280;58465;51.534;9.934;2022-07-05T05:42:05;100395.03;;;17.34;53.44
70841;BME280;58465;51.534;9.934;2022-07-05T05:44:30;100389.16;;;17.24;53.49
70841;BME280;58465;51.534;9.934;2022-07-05T05:46:55;100392.63;;;17.28;53.40
70841;BME280;58465;51.534;9.934;2022-07-05T05:49:21;100387.63;;;17.39;53.29
70841;BME280;58465;51.534;9.934;2022-07-05T05:51:46;100383.84;;;17.62;52.90
70841;BME280;58465;51.534;9.934;2022-07-05T05:54:11;100400.19;;;17.79;52.42
70841;BME280;58465;51.534;9.934;2022-07-05T05:56:37;100399.25;;;17.80;52.57
70841;BME280;58465;51.534;9.934;2022-07-05T05:59:03;100395.19;;;18.09;51.73
70841;BME280;58465;51.534;9.934;2022-07-05T06:01:29;100399.56;;;18.30;50.99
70841;BME280;58465;51.534;9.934;2022-07-05T06:03:54;100403.13;;;18.31;51.22
70841;BME280;58465;51.534;9.934;2022-07-05T06:06:19;100419.59;;;18.45;51.05
70841;BME280;58465;51.534;9.934;2022-07-05T06:08:44;100410.66;;;18.43;51.38
70841;BME280;58465;51.534;9.934;2022-07-05T06:11:10;100411.53;;;18.62;51.09
70841;BME280;58465;51.534;9.934;2022-07-05T06:13:35;100412.84;;;18.72;50.49
70841;BME280;58465;51.534;9.934;2022-07-05T06:16:00;100422.66;;;19.09;50.41
70841;BME280;58465;51.534;9.934;2022-07-05T06:18:27;100409.78;;;19.49;49.29
70841;BME280;58465;51.534;9.934;2022-07-05T06:20:52;100413.47;;;19.63;48.85
70841;BME280;58465;51.534;9.934;2022-07-05T06:23:17;100410.78;;;19.63;48.65
70841;BME280;58465;51.534;9.934;2022-07-05T06:25:43;100410.09;;;19.60;49.04
70841;BME280;58465;51.534;9.934;2022-07-05T06:28:08;100426.16;;;19.46;49.13
70841;BME280;58465;51.534;9.934;2022-07-05T06:30:36;100420.16;;;19.74;48.81
70841;BME280;58465;51.534;9.934;2022-07-05T06:33:03;100424.56;;;19.92;48.39
70841;BME280;58465;51.534;9.934;2022-07-05T06:35:30;100419.19;;;20.23;47.58
70841;BME280;58465;51.534;9.934;2022-07-05T06:38:07;100415.06;;;20.00;48.20
70841;BME280;58465;51.534;9.934;2022-07-05T06:40:35;100407.34;;;19.93;48.55
70841;BME280;58465;51.534;9.934;2022-07-05T06:43:02;100411.56;;;19.98;48.27
70841;BME280;58465;51.534;9.934;2022-07-05T06:45:28;100416.66;;;19.72;49.56
70841;BME280;58465;51.534;9.934;2022-07-05T06:48:03;100411.22;;;19.89;49.14
70841;BME280;58465;51.534;9.934;2022-07-05T06:50:32;100405.28;;;20.14;48.55
70841;BME280;58465;51.534;9.934;2022-07-05T06:52:57;100401.56;;;19.83;49.26
70841;BME280;58465;51.534;9.934;2022-07-05T06:55:24;100419.09;;;19.60;50.00
70841;BME280;58465;51.534;9.934;2022-07-05T06:57:59;100426.56;;;19.38;50.78
70841;BME280;58465;51.534;9.934;2022-07-05T07:00:25;100409.19;;;19.08;51.20
70841;BME280;58465;51.534;9.934;2022-07-05T07:02:51;100419.56;;;19.17;51.07
70841;BME280;58465;51.534;9.934;2022-07-05T07:05:16;100422.56;;;19.45;50.70
70841;BME280;58465;51.534;9.934;2022-07-05T07:07:42;100418.66;;;19.68;50.11
70841;BME280;58465;51.534;9.934;2022-07-05T07:10:26;100417.81;;;19.83;49.51
70841;BME280;58465;51.534;9.934;2022-07-05T07:12:51;100404.75;;;20.07;49.15
70841;BME280;58465;51.534;9.934;2022-07-05T07:15:17;100415.31;;;20.45;48.02
70841;BME280;58465;51.534;9.934;2022-07-05T07:17:42;100425.34;;;20.74;47.33
70841;BME280;58465;51.534;9.934;2022-07-05T07:20:08;100424.03;;;21.27;46.08
70841;BME280;58465;51.534;9.934;2022-07-05T07:22:33;100428.38;;;21.73;45.25
70841;BME280;58465;51.534;9.934;2022-07-05T07:24:59;100435.47;;;21.76;45.21
70841;BME280;58465;51.534;9.934;2022-07-05T07:27:24;100424.47;;;21.49;45.74
70841;BME280;58465;51.534;9.934;2022-07-05T07:29:49;100428.41;;;20.84;47.12
70841;BME280;58465;51.534;9.934;2022-07-05T07:32:15;100435.78;;;20.66;47.84
70841;BME280;58465;51.534;9.934;2022-07-05T07:34:40;100424.50;;;21.03;46.79
70841;BME280;58465;51.534;9.934;2022-07-05T07:37:07;100421.88;;;21.62;45.64
70841;BME280;58465;51.534;9.934;2022-07-05T07:39:34;100415.31;;;22.08;44.48
70841;BME280;58465;51.534;9.934;2022-07-05T07:41:59;100423.63;;;22.34;44.02
70841;BME280;58465;51.534;9.934;2022-07-05T07:44:25;100427.81;;;21.97;44.66
70841;BME280;58465;51.534;9.934;2022-07-05T07:46:50;100421.66;;;21.65;45.44
70841;BME280;58465;51.534;9.934;2022-07-05T07:49:16;100411.66;;;21.51;45.91
70841;BME280;58465;51.534;9.934;2022-07-05T07:51:42;100417.56;;;21.43;45.77
70841;BME280;58465;51.534;9.934;2022-07-05T07:54:07;100419.63;;;21.82;45.20
70841;BME280;58465;51.534;9.934;2022-07-05T07:56:33;100419.19;;;22.18;44.07
70841;BME280;58465;51.534;9.934;2022-07-05T07:58:58;100412.38;;;22.26;43.50
70841;BME280;58465;51.534;9.934;2022-07-05T08:01:24;100425.22;;;22.09;44.05
70841;BME280;58465;51.534;9.934;2022-07-05T08:03:49;100420.38;;;22.00;43.98
70841;BME280;58465;51.534;9.934;2022-07-05T08:06:15;100417.34;;;22.05;43.44
70841;BME280;58465;51.534;9.934;2022-07-05T08:08:42;100417.63;;;22.29;43.16
70841;BME280;58465;51.534;9.934;2022-07-05T08:11:10;100417.31;;;22.33;42.53
70841;BME280;58465;51.534;9.934;2022-07-05T08:13:36;100421.81;;;22.61;40.83
70841;BME280;58465;51.534;9.934;2022-07-05T08:16:02;100423.97;;;22.97;40.83
70841;BME280;58465;51.534;9.934;2022-07-05T08:18:27;100424.06;;;22.96;40.52
70841;BME280;58465;51.534;9.934;2022-07-05T08:21:12;100422.19;;;23.23;40.73
70841;BME280;58465;51.534;9.934;2022-07-05T08:23:55;100417.03;;;23.06;40.71
70841;BME280;58465;51.534;9.934;2022-07-05T08:26:21;100418.53;;;22.56;41.69
70841;BME280;58465;51.534;9.934;2022-07-05T08:28:47;100424.34;;;22.09;42.99
70841;BME280;58465;51.534;9.934;2022-07-05T08:31:12;100416.59;;;22.58;41.86
70841;BME280;58465;51.534;9.934;2022-07-05T08:33:38;100416.16;;;23.57;39.99
70841;BME280;58465;51.534;9.934;2022-07-05T08:36:03;100405.56;;;24.29;38.52
70841;BME280;58465;51.534;9.934;2022-07-05T08:38:28;100409.03;;;24.05;39.26
70841;BME280;58465;51.534;9.934;2022-07-05T08:40:55;100421.38;;;23.86;39.69
70841;BME280;58465;51.534;9.934;2022-07-05T08:43:22;100414.25;;;24.47;38.57
70841;BME280;58465;51.534;9.934;2022-07-05T08:45:49;100406.03;;;25.07;37.29
70841;BME280;58465;51.534;9.934;2022-07-05T08:48:16;100410.00;;;25.49;36.41
70841;BME280;58465;51.534;9.934;2022-07-05T08:50:41;100406.72;;;25.22;37.01
70841;BME280;58465;51.534;9.934;2022-07-05T08:53:08;100413.59;;;25.03;37.34
70841;BME280;58465;51.534;9.934;2022-07-05T08:55:34;100414.41;;;24.93;37.83
70841;BME280;58465;51.534;9.934;2022-07-05T08:58:00;100417.59;;;24.87;37.90
70841;BME280;58465;51.534;9.934;2022-07-05T09:00:26;100413.72;;;25.02;37.61
70841;BME280;58465;51.534;9.934;2022-07-05T09:02:53;100411.88;;;25.37;37.30
70841;BME280;58465;51.534;9.934;2022-07-05T09:05:19;100409.81;;;24.93;37.87
70841;BME280;58465;51.534;9.934;2022-07-05T09:08:01;100416.66;;;25.23;37.45
70841;BME280;58465;51.534;9.934;2022-07-05T09:10:28;100420.75;;;24.93;37.90
70841;BME280;58465;51.534;9.934;2022-07-05T09:12:55;100425.88;;;24.61;38.31
70841;BME280;58465;51.534;9.934;2022-07-05T09:15:21;100413.16;;;24.36;38.31
70841;BME280;58465;51.534;9.934;2022-07-05T09:17:47;100415.59;;;24.03;38.58
70841;BME280;58465;51.534;9.934;2022-07-05T09:20:18;100409.91;;;24.19;38.41
70841;BME280;58465;51.534;9.934;2022-07-05T09:22:44;100410.31;;;24.51;36.49
70841;BME280;58465;51.534;9.934;2022-07-05T09:25:18;100417.22;;;24.67;37.25
70841;BME280;58465;51.534;9.934;2022-07-05T09:27:57;100410.50;;;24.84;36.86
70841;BME280;58465;51.534;9.934;2022-07-05T09:33:00;100414.25;;;25.53;35.29
70841;BME280;58465;51.534;9.934;2022-07-05T09:35:33;100416.72;;;25.45;35.53
70841;BME280;58465;51.534;9.934;2022-07-05T09:38:00;100409.97;;;25.27;35.75
70841;BME280;58465;51.534;9.934;2022-07-05T09:40:29;100404.97;;;25.56;35.32
70841;BME280;58465;51.534;9.934;2022-07-05T09:43:10;100404.31;;;26.32;33.53
70841;BME280;58465;51.534;9.934;2022-07-05T09:45:35;100408.97;;;26.63;33.15
70841;BME280;58465;51.534;9.934;2022-07-05T09:48:01;100407.88;;;25.99;34.03
70841;BME280;58465;51.534;9.934;2022-07-05T09:50:33;100407.69;;;25.56;35.11
70841;BME280;58465;51.534;9.934;2022-07-05T09:52:59;100408.59;;;25.32;35.39
70841;BME280;58465;51.534;9.934;2022-07-05T09:55:25;100407.81;;;25.19;36.02
70841;BME280;58465;51.534;9.934;2022-07-05T09:57:51;100402.50;;;24.81;36.15
70841;BME280;58465;51.534;9.934;2022-07-05T10:00:18;100407.09;;;24.93;36.41
70841;BME280;58465;51.534;9.934;2022-07-05T10:02:51;100398.72;;;25.19;35.21
70841;BME280;58465;51.534;9.934;2022-07-05T10:05:21;100398.06;;;25.39;34.41
70841;BME280;58465;51.534;9.934;2022-07-05T10:07:55;100400.97;;;25.13;34.86
70841;BME280;58465;51.534;9.934;2022-07-05T10:10:23;100401.66;;;25.39;34.51
70841;BME280;58465;51.534;9.934;2022-07-05T10:12:50;100408.22;;;25.61;33.72
70841;BME280;58465;51.534;9.934;2022-07-05T10:15:19;100392.59;;;25.39;35.11
70841;BME280;58465;51.534;9.934;2022-07-05T10:17:53;100408.53;;;25.45;35.85
70841;BME280;58465;51.534;9.934;2022-07-05T10:20:26;100399.91;;;26.07;34.42
70841;BME280;58465;51.534;9.934;2022-07-05T10:22:53;100405.38;;;25.96;34.73
70841;BME280;58465;51.534;9.934;2022-07-05T10:25:22;100410.44;;;25.21;36.04
70841;BME280;58465;51.534;9.934;2022-07-05T10:27:49;100399.94;;;24.80;36.77
70841;BME280;58465;51.534;9.934;2022-07-05T10:30:18;100407.31;;;25.14;36.14
70841;BME280;58465;51.534;9.934;2022-07-05T10:32:43;100410.91;;;25.14;34.73
70841;BME280;58465;51.534;9.934;2022-07-05T10:35:10;100404.34;;;25.28;35.28
70841;BME280;58465;51.534;9.934;2022-07-05T10:37:35;100390.78;;;25.16;35.53
70841;BME280;58465;51.534;9.934;2022-07-05T10:40:04;100399.47;;;25.44;35.05
70841;BME280;58465;51.534;9.934;2022-07-05T10:42:37;100404.81;;;25.46;34.92
70841;BME280;58465;51.534;9.934;2022-07-05T10:45:22;100395.44;;;25.26;34.86
70841;BME280;58465;51.534;9.934;2022-07-05T10:58:36;100391.91;;;25.13;33.30
70841;BME280;58465;51.534;9.934;2022-07-05T11:03:52;100390.59;;;26.20;31.70
70841;BME280;58465;51.534;9.934;2022-07-05T11:06:21;100389.38;;;25.45;32.81
70841;BME280;58465;51.534;9.934;2022-07-05T11:11:26;100393.97;;;24.98;33.53
70841;BME280;58465;51.534;9.934;2022-07-05T11:13:55;100384.91;;;24.61;33.99
70841;BME280;58465;51.534;9.934;2022-07-05T11:16:34;100393.97;;;24.62;33.82
70841;BME280;58465;51.534;9.934;2022-07-05T11:19:10;100380.50;;;25.30;32.73
70841;BME280;58465;51.534;9.934;2022-07-05T11:22:05;100384.50;;;26.17;31.27
70841;BME280;58465;51.534;9.934;2022-07-05T11:24:36;100384.38;;;25.85;31.32
70841;BME280;58465;51.534;9.934;2022-07-05T11:27:04;100387.22;;;25.72;31.52
70841;BME280;58465;51.534;9.934;2022-07-05T11:29:50;100380.50;;;25.87;31.20
70841;BME280;58465;51.534;9.934;2022-07-05T11:32:17;100380.28;;;26.13;30.77
70841;BME280;58465;51.534;9.934;2022-07-05T11:34:54;100380.47;;;26.54;29.99
70841;BME280;58465;51.534;9.934;2022-07-05T11:37:24;100382.38;;;26.86;29.42
70841;BME280;58465;51.534;9.934;2022-07-05T11:42:31;100373.25;;;27.28;28.38
70841;BME280;58465;51.534;9.934;2022-07-05T11:44:56;100371.09;;;27.53;27.71
70841;BME280;58465;51.534;9.934;2022-07-05T11:47:22;100372.25;;;28.01;26.76
70841;BME280;58465;51.534;9.934;2022-07-05T11:49:58;100375.59;;;27.33;27.35
70841;BME280;58465;51.534;9.934;2022-07-05T11:52:35;100368.56;;;27.19;27.97
70841;BME280;58465;51.534;9.934;2022-07-05T11:55:03;100357.13;;;27.77;27.10
70841;BME280;58465;51.534;9.934;2022-07-05T11:57:28;100364.16;;;29.28;25.38
70841;BME280;58465;51.534;9.934;2022-07-05T11:59:54;100359.47;;;30.86;23.64
70841;BME280;58465;51.534;9.934;2022-07-05T12:02:19;100356.81;;;31.56;22.58
70841;BME280;58465;51.534;9.934;2022-07-05T12:04:51;100345.47;;;32.61;21.23
70841;BME280;58465;51.534;9.934;2022-07-05T12:07:36;100350.78;;;31.34;22.48
70841;BME280;58465;51.534;9.934;2022-07-05T12:10:02;100342.31;;;32.05;21.92
70841;BME280;58465;51.534;9.934;2022-07-05T12:12:47;100333.09;;;31.89;21.94
70841;BME280;58465;51.534;9.934;2022-07-05T12:15:20;100332.13;;;30.93;22.58
70841;BME280;58465;51.534;9.934;2022-07-05T12:17:48;100338.31;;;29.68;24.23
70841;BME280;58465;51.534;9.934;2022-07-05T12:20:21;100338.75;;;30.10;24.07
70841;BME280;58465;51.534;9.934;2022-07-05T12:22:51;100347.63;;;29.28;24.85
70841;BME280;58465;51.534;9.934;2022-07-05T12:25:19;100350.53;;;28.19;26.20
70841;BME280;58465;51.534;9.934;2022-07-05T12:27:46;100351.41;;;28.89;24.90
70841;BME280;58465;51.534;9.934;2022-07-05T12:30:16;100338.66;;;29.26;24.74
70841;BME280;58465;51.534;9.934;2022-07-05T12:33:01;100345.88;;;30.30;23.01
70841;BME280;58465;51.534;9.934;2022-07-05T12:35:34;100342.34;;;30.38;23.50
70841;BME280;58465;51.534;9.934;2022-07-05T12:38:04;100316.66;;;31.35;21.77
70841;BME280;58465;51.534;9.934;2022-07-05T12:40:30;100322.31;;;31.52;22.04
70841;BME280;58465;51.534;9.934;2022-07-05T12:43:04;100324.63;;;31.39;21.99
70841;BME280;58465;51.534;9.934;2022-07-05T12:45:30;100322.75;;;32.99;20.44
70841;BME280;58465;51.534;9.934;2022-07-05T12:48:03;100340.25;;;34.90;18.40
70841;BME280;58465;51.534;9.934;2022-07-05T12:50:50;100334.81;;;35.19;17.31
70841;BME280;58465;51.534;9.934;2022-07-05T12:53:17;100341.50;;;35.10;17.69
70841;BME280;58465;51.534;9.934;2022-07-05T12:56:04;100321.31;;;33.84;18.57
70841;BME280;58465;51.534;9.934;2022-07-05T12:58:50;100330.72;;;34.31;18.66
70841;BME280;58465;51.534;9.934;2022-07-05T13:01:26;100329.47;;;35.41;17.07
70841;BME280;58465;51.534;9.934;2022-07-05T13:04:01;100324.41;;;36.76;15.82
70841;BME280;58465;51.534;9.934;2022-07-05T13:12:17;100332.28;;;33.62;17.98
70841;BME280;58465;51.534;9.934;2022-07-05T13:14:49;100318.63;;;33.44;18.80
70841;BME280;58465;51.534;9.934;2022-07-05T13:17:19;100325.53;;;31.21;20.68
70841;BME280;58465;51.534;9.934;2022-07-05T13:22:24;100316.78;;;30.73;21.28